Aérodrome :
LOGIN :

S'inscrire | Disclaimer

   EN    FR    IT 

 










Légende :    VFR   VFR Marginal   IFR   IFR Intensif   IFR Très Intensif
Visi : 
Plafond : 
>= 8 km
>= 3000ft
5 à 8 km
1000 à 3000 ft
1500m à 5 km
500 à 1000 ft
800 à 1500m
200 à 500 ft
< 800m
< 200 ft
Symboles :   Orages  Brouillard  Fortes neiges  Fortes précipitations  Vent > 20 kt
SIGMETs :   Divers  Orages  Givrage  Turbulence  Onde Orograph.  Cendres Volcan.







- Altitude de l'aérodrome : 30 ft
- Code IATA : CFN


EIDL - Donegal

DERNIER METAR :
  • 141830Z 33022KT 9999 SCT029 SCT039 08/03 Q0990

METARs EXPIRÉS :
  • 141800Z 32017KT 9999 SCT024 08/04 Q0989
  • 141730Z 32018KT 9999 BKN027 08/04 Q0988
  • 141700Z 32016KT 9999 BKN029 08/04 Q0988
  • 141630Z 32017KT 9999 SHRA SCT031 08/03 Q0988
  • 141600Z 32015KT 9999 FEW033 08/03 Q0987

TAF TAF EIDL
Valide du 14 à 18h jusqu'au 14 à 21h UTC


141700Z 1418/1421 33018G28KT 9999 SCT020 BKN030
BECMG 1418/1420 34025G40KT
TEMPO 1418/1421 5000 SHRA BKN020CB
Pas de NOTAMs connus pour ce terrain.
1 SIGMET publié pour la FIR Shannon (EISN) :
 
Turbulence forte
EISN SIGMET 11 VALID 141700/142100 EINN
EISN SHANNON FIR SEV TURB FCST WI N5432 W01000 - N5140 W00930 - N5100 W00930 - N5100 W01500 - N5400 W01500 - N5432 W01000 SFC/FL060 MOV SE AT 40KT NC=



MET'MAP, la Météo Aéronautique d'un coup d'oeil ! - Copyright ORBIFLY Décembre 2007 - Disclaimer

ORBIFLY MET'MAP TEAM :

Programmation & Développement : Alexandra Zaïnal
Conception & Développement : Baudouin d'Aumeries
Co-Programmation & Développement : Marc-Olivier Méhu
Soutien technique & logistique : Manuel Goepfert

Contact : metmap@orbifly.com




SOURCES & CREDITS :

   NOAA